createdAt,value
2017-10-25T00:00:44.034Z,7.90
2017-10-25T00:03:11.567Z,8.00
2017-10-25T00:05:39.148Z,7.90
2017-10-25T00:08:06.680Z,7.90
2017-10-25T00:10:34.211Z,7.90
2017-10-25T00:13:02.531Z,7.90
2017-10-25T00:15:30.059Z,7.80
2017-10-25T00:17:58.351Z,7.80
2017-10-25T00:20:25.911Z,7.80
2017-10-25T00:22:53.451Z,7.80
2017-10-25T00:25:21.747Z,7.90
2017-10-25T00:27:49.579Z,7.90
2017-10-25T00:30:17.107Z,7.90
2017-10-25T00:32:44.631Z,7.90
2017-10-25T00:35:12.192Z,7.90
2017-10-25T00:37:39.726Z,7.80
2017-10-25T00:40:07.263Z,7.90
2017-10-25T00:42:34.820Z,7.90
2017-10-25T00:45:02.365Z,7.90
2017-10-25T00:47:30.528Z,7.90
2017-10-25T00:49:58.114Z,7.90
2017-10-25T00:52:25.651Z,7.90
2017-10-25T00:54:53.183Z,7.90
2017-10-25T00:57:20.743Z,8.00
2017-10-25T00:59:48.262Z,8.00
2017-10-25T01:02:16.410Z,7.90
2017-10-25T01:04:43.977Z,7.90
2017-10-25T01:07:11.504Z,7.90
2017-10-25T01:09:39.035Z,8.00
2017-10-25T01:12:07.680Z,8.00
2017-10-25T01:14:35.211Z,8.00
2017-10-25T01:17:02.744Z,8.00
2017-10-25T01:19:30.299Z,7.90
2017-10-25T01:21:57.832Z,8.00
2017-10-25T01:24:25.367Z,8.00
2017-10-25T01:26:52.931Z,8.00
2017-10-25T01:29:20.468Z,8.10
2017-10-25T01:31:48.000Z,8.10
2017-10-25T01:34:16.475Z,8.00
2017-10-25T01:36:44.012Z,8.10
2017-10-25T01:39:11.552Z,8.10
2017-10-25T01:41:39.099Z,8.10
2017-10-25T01:44:06.632Z,8.20
2017-10-25T01:46:34.164Z,8.30
2017-10-25T01:49:01.720Z,8.30
2017-10-25T01:51:29.262Z,8.30
2017-10-25T01:53:56.800Z,8.30
2017-10-25T01:56:24.375Z,8.40
2017-10-25T01:58:52.316Z,8.40
2017-10-25T02:01:19.842Z,8.50
2017-10-25T02:03:47.420Z,8.50
2017-10-25T02:06:16.451Z,8.60
2017-10-25T02:08:43.975Z,8.60
2017-10-25T02:11:11.532Z,8.60
2017-10-25T02:13:39.068Z,8.70
2017-10-25T02:16:06.591Z,8.70
2017-10-25T02:18:34.167Z,8.70
2017-10-25T02:21:01.692Z,8.80
2017-10-25T02:23:29.227Z,8.80
2017-10-25T02:25:57.551Z,8.80
2017-10-25T02:28:25.084Z,8.80
2017-10-25T02:30:53.023Z,8.80
2017-10-25T02:33:20.588Z,8.80
2017-10-25T02:35:48.888Z,8.80
2017-10-25T02:38:16.471Z,8.80
2017-10-25T02:40:44.056Z,8.80
2017-10-25T02:43:11.595Z,8.90
2017-10-25T02:45:39.136Z,8.90
2017-10-25T02:48:06.700Z,8.90
2017-10-25T02:50:34.235Z,8.90
2017-10-25T02:53:01.773Z,9.00
2017-10-25T02:55:30.096Z,9.00
2017-10-25T02:57:57.635Z,9.00
2017-10-25T03:00:25.163Z,9.00
2017-10-25T03:02:52.752Z,9.10
2017-10-25T03:05:20.296Z,9.20
2017-10-25T03:07:48.599Z,9.20
2017-10-25T03:10:16.516Z,9.20
2017-10-25T03:12:44.044Z,9.20
2017-10-25T03:15:11.576Z,9.20
2017-10-25T03:17:39.126Z,9.20
2017-10-25T03:20:07.426Z,9.20
2017-10-25T03:22:35.732Z,9.20
2017-10-25T03:25:03.323Z,9.20
2017-10-25T03:27:30.865Z,9.10
2017-10-25T03:29:58.408Z,9.10
2017-10-25T03:32:26.259Z,9.20
2017-10-25T03:34:53.800Z,9.10
2017-10-25T03:37:21.335Z,9.20
2017-10-25T03:39:49.655Z,9.20
2017-10-25T03:42:17.188Z,9.20
2017-10-25T03:44:44.724Z,9.30
2017-10-25T03:47:12.300Z,9.30
2017-10-25T03:49:40.599Z,9.40
2017-10-25T03:52:08.132Z,9.40
2017-10-25T03:54:36.451Z,9.50
2017-10-25T03:57:03.971Z,9.50
2017-10-25T03:59:32.276Z,9.50
2017-10-25T04:01:59.827Z,9.40
2017-10-25T04:04:27.367Z,9.50
2017-10-25T04:06:55.671Z,9.60
2017-10-25T04:09:23.256Z,9.50
2017-10-25T04:11:50.791Z,9.60
2017-10-25T04:14:18.352Z,9.60
2017-10-25T04:16:45.912Z,9.60
2017-10-25T04:19:15.428Z,9.70
2017-10-25T04:21:42.959Z,9.60
2017-10-25T04:24:10.529Z,9.70
2017-10-25T04:26:38.059Z,9.70
2017-10-25T04:29:05.595Z,9.70
2017-10-25T04:31:33.187Z,9.80
2017-10-25T04:34:00.720Z,9.70
2017-10-25T04:36:28.261Z,9.70
2017-10-25T04:38:55.833Z,9.80
2017-10-25T04:41:23.380Z,9.80
2017-10-25T04:43:50.908Z,9.80
2017-10-25T04:46:18.471Z,9.80
2017-10-25T04:48:46.003Z,9.80
2017-10-25T04:51:14.522Z,9.80
2017-10-25T04:53:42.101Z,9.80
2017-10-25T04:56:09.637Z,9.90
2017-10-25T04:58:37.163Z,9.90
2017-10-25T05:01:05.508Z,10.00
2017-10-25T05:03:33.047Z,10.00
2017-10-25T05:06:00.580Z,9.90
2017-10-25T05:08:28.126Z,9.90
2017-10-25T05:10:58.120Z,9.90
2017-10-25T05:13:25.650Z,9.90
2017-10-25T05:15:53.223Z,9.90
2017-10-25T05:18:20.755Z,9.90
2017-10-25T05:20:48.287Z,9.90
2017-10-25T05:23:16.447Z,9.90
2017-10-25T05:25:44.739Z,9.90
2017-10-25T05:28:13.956Z,9.80
2017-10-25T05:30:41.511Z,9.80
2017-10-25T05:33:09.044Z,9.90
2017-10-25T05:35:36.919Z,10.00
2017-10-25T05:38:04.503Z,10.00
2017-10-25T05:40:32.035Z,10.00
2017-10-25T05:42:59.570Z,10.00
2017-10-25T05:45:27.127Z,10.10
2017-10-25T05:47:54.655Z,10.10
2017-10-25T05:50:22.192Z,10.10
2017-10-25T05:52:49.751Z,10.10
2017-10-25T05:55:17.296Z,10.10
2017-10-25T05:57:45.591Z,10.20
2017-10-25T06:00:15.548Z,10.20
2017-10-25T06:02:43.084Z,10.20
2017-10-25T06:05:10.620Z,10.30
2017-10-25T06:07:38.180Z,10.20
2017-10-25T06:10:05.715Z,10.20
2017-10-25T06:12:33.238Z,10.10
2017-10-25T06:15:00.796Z,10.10
2017-10-25T06:17:28.328Z,10.10
2017-10-25T06:19:55.855Z,10.10
2017-10-25T06:22:23.451Z,10.10
2017-10-25T06:24:50.987Z,10.10
2017-10-25T06:27:18.523Z,10.10
2017-10-25T06:29:46.079Z,10.20
2017-10-25T06:32:15.493Z,10.20
2017-10-25T06:34:43.041Z,10.30
2017-10-25T06:37:10.854Z,10.20
2017-10-25T06:39:38.495Z,10.30
2017-10-25T06:44:34.340Z,10.40
2017-10-25T06:47:01.871Z,10.30
2017-10-25T06:49:29.412Z,10.40
2017-10-25T06:51:56.966Z,10.50
2017-10-25T06:54:24.492Z,10.50
2017-10-25T06:56:52.028Z,10.60
2017-10-25T06:59:20.360Z,10.80
2017-10-25T07:01:47.892Z,10.80
2017-10-25T07:04:16.377Z,10.90
2017-10-25T07:06:43.972Z,11.00
2017-10-25T07:09:11.507Z,11.10
2017-10-25T07:11:39.035Z,11.20
2017-10-25T07:14:06.617Z,11.40
2017-10-25T07:16:34.167Z,11.50
2017-10-25T07:19:01.704Z,11.70
2017-10-25T07:21:29.291Z,11.80
2017-10-25T07:23:56.816Z,12.00
2017-10-25T07:26:24.361Z,12.10
2017-10-25T07:28:51.952Z,12.20
2017-10-25T07:31:19.580Z,12.20
2017-10-25T07:33:47.115Z,12.30
2017-10-25T07:36:16.504Z,12.40
2017-10-25T07:38:44.334Z,12.50
2017-10-25T07:41:13.603Z,12.70
2017-10-25T07:43:41.167Z,12.70
2017-10-25T07:46:08.699Z,12.80
2017-10-25T07:48:36.231Z,13.30
2017-10-25T07:51:03.816Z,13.50
2017-10-25T07:53:31.344Z,13.80
2017-10-25T07:55:59.645Z,14.80
2017-10-25T07:58:27.205Z,14.80
2017-10-25T08:00:54.745Z,15.60
2017-10-25T08:03:22.286Z,15.90
2017-10-25T08:05:50.697Z,16.90
2017-10-25T08:08:18.236Z,16.90
2017-10-25T08:10:45.771Z,17.10
2017-10-25T08:13:24.640Z,17.20
2017-10-25T08:20:27.509Z,17.50
2017-10-25T08:22:55.043Z,18.00
2017-10-25T08:25:22.579Z,18.50
2017-10-25T08:27:50.131Z,19.00
2017-10-25T08:30:17.659Z,19.10
2017-10-25T08:32:45.183Z,19.10
2017-10-25T08:35:12.783Z,19.30
2017-10-25T08:37:41.079Z,19.50
2017-10-25T08:40:09.132Z,19.50
2017-10-25T08:42:36.687Z,19.30
2017-10-25T08:45:04.250Z,19.10
2017-10-25T08:47:31.784Z,18.50
2017-10-25T08:49:59.339Z,17.60
2017-10-25T08:52:26.876Z,16.80
2017-10-25T08:54:54.503Z,16.80
2017-10-25T08:57:22.235Z,17.10
2017-10-25T08:59:49.768Z,16.90
2017-10-25T09:02:17.376Z,17.10
2017-10-25T09:04:45.720Z,17.10
2017-10-25T09:07:24.770Z,17.10
2017-10-25T09:10:51.289Z,18.30
2017-10-25T09:13:18.818Z,18.30
2017-10-25T09:15:46.347Z,18.70
2017-10-25T09:18:15.754Z,19.20
2017-10-25T09:20:44.051Z,20.40
2017-10-25T09:23:11.584Z,20.30
2017-10-25T09:25:39.918Z,20.30
2017-10-25T09:28:07.468Z,20.30
2017-10-25T09:30:35.026Z,19.60
2017-10-25T09:33:02.581Z,19.00
2017-10-25T09:35:30.110Z,18.60
2017-10-25T09:37:58.508Z,17.80
2017-10-25T09:40:26.335Z,17.80
2017-10-25T09:42:53.871Z,17.80
2017-10-25T09:45:21.411Z,17.90
2017-10-25T09:47:49.743Z,17.80
2017-10-25T09:50:17.283Z,17.80
2017-10-25T09:52:44.818Z,17.70
2017-10-25T09:55:12.384Z,18.00
2017-10-25T09:57:39.910Z,17.90
2017-10-25T10:00:07.585Z,18.00
2017-10-25T10:02:35.175Z,18.00
2017-10-25T10:05:02.710Z,18.40
2017-10-25T10:07:30.248Z,18.70
2017-10-25T10:09:57.802Z,18.50
2017-10-25T10:12:25.340Z,18.40
2017-10-25T10:14:52.878Z,18.50
2017-10-25T10:17:20.435Z,18.60
2017-10-25T10:19:47.968Z,18.70
2017-10-25T10:22:16.478Z,18.70
2017-10-25T10:24:44.099Z,18.70
2017-10-25T10:27:11.635Z,18.60
2017-10-25T10:29:39.976Z,19.30
2017-10-25T10:32:07.531Z,19.30
2017-10-25T10:34:35.064Z,19.60
2017-10-25T10:37:03.379Z,19.80
2017-10-25T10:39:30.940Z,19.90
2017-10-25T10:41:58.898Z,19.90
2017-10-25T10:44:26.664Z,20.10
2017-10-25T10:46:54.251Z,20.10
2017-10-25T10:49:21.792Z,20.00
2017-10-25T10:51:49.319Z,19.70
2017-10-25T10:54:16.868Z,19.60
2017-10-25T10:56:44.403Z,19.70
2017-10-25T10:59:14.533Z,19.70
2017-10-25T11:01:42.091Z,19.70
2017-10-25T11:04:10.309Z,19.30
2017-10-25T11:06:37.844Z,19.20
2017-10-25T11:09:05.492Z,19.00
2017-10-25T11:11:33.026Z,19.00
2017-10-25T11:14:00.559Z,18.90
2017-10-25T11:16:28.119Z,18.90
2017-10-25T11:18:55.652Z,18.80
2017-10-25T11:21:23.192Z,18.70
2017-10-25T11:23:50.747Z,18.60
2017-10-25T11:26:18.284Z,18.80
2017-10-25T11:28:45.820Z,19.00
2017-10-25T11:31:24.463Z,19.00
2017-10-25T11:36:11.271Z,19.00
2017-10-25T11:38:38.851Z,19.10
2017-10-25T11:41:06.388Z,18.90
2017-10-25T11:43:33.916Z,19.10
2017-10-25T11:46:01.463Z,19.10
2017-10-25T11:48:28.999Z,19.20
2017-10-25T11:50:56.523Z,19.10
2017-10-25T11:53:24.112Z,19.10
2017-10-25T11:55:51.646Z,19.30
2017-10-25T11:58:19.192Z,19.40
2017-10-25T12:00:46.747Z,19.50
2017-10-25T12:03:16.319Z,19.70
2017-10-25T12:05:43.843Z,19.70
2017-10-25T12:08:11.400Z,19.70
2017-10-25T12:10:39.584Z,19.90
2017-10-25T12:13:07.131Z,20.00
2017-10-25T12:15:34.719Z,20.10
2017-10-25T12:18:02.256Z,20.30
2017-10-25T12:20:29.796Z,20.40
2017-10-25T12:22:57.355Z,20.40
2017-10-25T12:25:24.889Z,20.30
2017-10-25T12:27:52.431Z,20.30
2017-10-25T12:30:20.375Z,20.30
2017-10-25T12:32:47.913Z,20.30
2017-10-25T12:35:16.489Z,20.10
2017-10-25T12:37:44.079Z,20.00
2017-10-25T12:40:11.704Z,20.10
2017-10-25T12:42:39.236Z,20.10
2017-10-25T12:45:06.791Z,19.90
2017-10-25T12:47:34.324Z,19.90
2017-10-25T12:50:02.627Z,19.80
2017-10-25T12:52:30.211Z,19.80
2017-10-25T12:54:57.776Z,19.80
2017-10-25T13:37:20.180Z,20.00
2017-10-25T13:39:47.720Z,20.00
2017-10-25T13:42:16.447Z,20.00
2017-10-25T13:44:44.012Z,19.90
2017-10-25T13:47:12.115Z,19.90
2017-10-25T13:49:39.653Z,19.90
2017-10-25T13:52:07.215Z,19.70
2017-10-25T13:54:34.757Z,19.50
2017-10-25T13:57:02.292Z,19.30
2017-10-25T13:59:30.031Z,19.30
2017-10-25T14:04:36.038Z,19.10
2017-10-25T14:07:03.568Z,19.00
2017-10-25T14:09:31.248Z,19.00
2017-10-25T14:11:58.824Z,19.00
2017-10-25T14:14:26.357Z,19.00
2017-10-25T14:16:58.092Z,19.00
2017-10-25T14:19:26.455Z,19.00
2017-10-25T14:21:54.395Z,18.90
2017-10-25T14:24:21.918Z,19.00
2017-10-25T14:27:01.169Z,19.00
2017-10-25T14:29:28.756Z,19.00
2017-10-25T14:31:56.288Z,19.00
2017-10-25T14:34:23.875Z,19.00
2017-10-25T14:36:51.423Z,19.00
2017-10-25T14:39:19.722Z,19.00
2017-10-25T14:41:47.311Z,19.00
2017-10-25T14:44:16.336Z,18.90
2017-10-25T14:46:43.901Z,18.90
2017-10-25T14:49:11.788Z,18.90
2017-10-25T15:03:04.924Z,18.60
2017-10-25T15:05:32.541Z,18.60
2017-10-25T15:08:00.143Z,18.50
2017-10-25T15:10:27.720Z,18.50
2017-10-25T15:12:55.280Z,18.40
2017-10-25T15:15:24.065Z,18.30
2017-10-25T15:17:51.621Z,18.30
2017-10-25T15:20:19.794Z,18.20
2017-10-25T15:22:47.422Z,18.20
2017-10-25T15:25:19.064Z,18.20
2017-10-25T15:27:46.785Z,18.10
2017-10-25T15:30:27.911Z,18.20
2017-10-25T15:35:39.026Z,18.10
2017-10-25T15:38:06.695Z,17.90
2017-10-25T15:40:34.342Z,17.80
2017-10-25T15:43:01.973Z,17.70
2017-10-25T15:45:30.715Z,17.60
2017-10-25T15:47:58.354Z,17.50
2017-10-25T15:50:26.004Z,17.40
2017-10-25T15:52:53.970Z,17.40
2017-10-25T15:57:54.424Z,17.20
2017-10-25T16:00:22.705Z,17.10
2017-10-25T16:02:50.405Z,17.00
2017-10-25T16:05:22.486Z,16.90
2017-10-25T16:07:50.184Z,16.80
2017-10-25T16:10:17.840Z,16.70
2017-10-25T16:15:43.557Z,16.60
2017-10-25T16:18:11.915Z,16.40
2017-10-25T16:20:39.476Z,16.40
2017-10-25T16:23:07.107Z,16.30
2017-10-25T16:25:34.675Z,16.20
2017-10-25T16:28:02.301Z,16.10
2017-10-25T16:30:29.920Z,16.00
2017-10-25T16:32:57.561Z,15.90
2017-10-25T16:35:25.153Z,15.90
2017-10-25T16:37:53.691Z,15.70
2017-10-25T16:40:21.251Z,15.70
2017-10-25T16:42:48.784Z,15.60
2017-10-25T16:45:17.326Z,15.50
2017-10-25T16:47:44.904Z,15.50
2017-10-25T16:53:16.416Z,15.50
2017-10-25T16:55:43.955Z,15.40
2017-10-25T16:58:12.335Z,15.30
2017-10-25T17:00:40.683Z,15.30
2017-10-25T17:03:08.212Z,15.30
2017-10-25T17:05:35.744Z,15.20
2017-10-25T17:08:03.327Z,15.10
2017-10-25T17:10:30.876Z,15.10
2017-10-25T17:12:58.434Z,15.00
2017-10-25T17:15:26.036Z,14.90
2017-10-25T17:17:53.601Z,14.80
2017-10-25T17:20:22.562Z,14.70
2017-10-25T17:22:50.174Z,14.70
2017-10-25T17:25:17.711Z,14.60
2017-10-25T17:27:45.247Z,14.60
2017-10-25T17:30:13.735Z,14.50
2017-10-25T17:32:41.275Z,14.50
2017-10-25T17:35:08.807Z,14.60
2017-10-25T17:37:37.155Z,14.50
2017-10-25T17:40:04.758Z,14.40
2017-10-25T17:42:32.316Z,14.40
2017-10-25T17:45:00.724Z,14.40
2017-10-25T17:47:28.306Z,14.30
2017-10-25T17:49:55.888Z,14.30
2017-10-25T17:52:23.472Z,14.10
2017-10-25T17:54:51.795Z,14.00
2017-10-25T17:57:20.157Z,14.00
2017-10-25T17:59:47.763Z,13.90
2017-10-25T18:02:17.216Z,13.90
2017-10-25T18:04:45.961Z,13.90
2017-10-25T18:07:14.839Z,13.90
2017-10-25T18:09:42.372Z,13.80
2017-10-25T18:12:09.908Z,13.80
2017-10-25T18:14:37.468Z,13.70
2017-10-25T18:17:05.005Z,13.70
2017-10-25T18:19:33.421Z,13.70
2017-10-25T18:22:00.989Z,13.60
2017-10-25T18:24:28.542Z,13.60
2017-10-25T18:26:56.124Z,13.50
2017-10-25T18:29:23.731Z,13.40
2017-10-25T18:31:52.031Z,13.40
2017-10-25T18:34:19.567Z,13.40
2017-10-25T18:36:47.891Z,13.30
2017-10-25T18:39:16.516Z,13.30
2017-10-25T18:41:44.058Z,13.30
2017-10-25T18:44:11.628Z,13.30
2017-10-25T18:46:39.164Z,13.20
2017-10-25T18:49:06.692Z,13.20
2017-10-25T18:51:34.696Z,13.10
2017-10-25T18:54:02.220Z,13.10
2017-10-25T18:56:29.754Z,13.10
2017-10-25T18:58:58.232Z,13.00
2017-10-25T19:01:26.532Z,13.00
2017-10-25T19:03:54.064Z,13.00
2017-10-25T19:06:21.624Z,13.00
2017-10-25T19:08:49.607Z,12.90
2017-10-25T19:11:17.899Z,12.90
2017-10-25T19:13:45.478Z,12.80
2017-10-25T19:16:14.782Z,12.80
2017-10-25T19:25:12.339Z,12.80
2017-10-25T19:27:39.868Z,12.50
2017-10-25T19:30:07.423Z,12.40
2017-10-25T19:32:35.008Z,12.40
2017-10-25T19:35:02.540Z,12.50
2017-10-25T19:37:30.074Z,12.50
2017-10-25T19:39:57.632Z,12.40
2017-10-25T19:42:25.163Z,12.40
2017-10-25T19:44:52.692Z,12.40
2017-10-25T19:47:20.252Z,12.40
2017-10-25T19:49:47.781Z,12.40
2017-10-25T19:52:17.175Z,12.40
2017-10-25T19:54:44.760Z,12.30
2017-10-25T19:57:12.287Z,12.30
2017-10-25T19:59:39.821Z,12.30
2017-10-25T20:02:08.147Z,12.30
2017-10-25T20:04:35.676Z,12.20
2017-10-25T20:07:03.383Z,12.30
2017-10-25T20:09:30.936Z,12.20
2017-10-25T20:11:58.462Z,12.20
2017-10-25T20:14:25.998Z,12.10
2017-10-25T20:16:53.579Z,12.20
2017-10-25T20:19:21.103Z,12.10
2017-10-25T20:21:48.637Z,12.10
2017-10-25T20:24:17.206Z,12.00
2017-10-25T20:26:44.750Z,12.00
2017-10-25T20:29:12.279Z,12.00
2017-10-25T20:31:39.832Z,11.90
2017-10-25T20:34:07.355Z,11.90
2017-10-25T20:36:34.894Z,11.90
2017-10-25T20:39:02.512Z,11.80
2017-10-25T20:41:30.807Z,11.80
2017-10-25T20:43:58.328Z,11.80
2017-10-25T20:46:25.875Z,11.80
2017-10-25T20:48:53.403Z,11.80
2017-10-25T20:51:20.931Z,11.80
2017-10-25T20:53:48.483Z,11.80
2017-10-25T20:56:16.427Z,11.80
2017-10-25T20:58:43.947Z,11.80
2017-10-25T21:01:11.527Z,11.70
2017-10-25T21:03:39.056Z,11.70
2017-10-25T21:06:07.415Z,11.60
2017-10-25T21:08:35.028Z,11.60
2017-10-25T21:11:03.389Z,11.60
2017-10-25T21:13:30.910Z,11.60
2017-10-25T21:15:58.459Z,11.60
2017-10-25T21:18:25.979Z,11.50
2017-10-25T21:20:53.507Z,11.50
2017-10-25T21:23:21.083Z,11.50
2017-10-25T21:25:48.607Z,11.50
2017-10-25T21:28:17.215Z,11.50
2017-10-25T21:30:44.780Z,11.50
2017-10-25T21:33:12.308Z,11.60
2017-10-25T21:35:39.826Z,11.60
2017-10-25T21:38:07.390Z,11.60
2017-10-25T21:40:34.923Z,11.60
2017-10-25T21:43:02.451Z,11.60
2017-10-25T21:45:30.023Z,11.60
2017-10-25T21:47:58.307Z,11.60
2017-10-25T21:50:25.846Z,11.50
2017-10-25T21:52:53.398Z,11.50
2017-10-25T21:55:20.932Z,11.50
2017-10-25T21:57:48.467Z,11.50
2017-10-25T22:00:16.682Z,11.50
2017-10-25T22:02:44.208Z,11.40
2017-10-25T22:05:11.735Z,11.40
2017-10-25T22:07:45.891Z,11.40
2017-10-25T22:10:14.588Z,11.40
2017-10-25T22:12:42.115Z,11.40
2017-10-25T22:15:09.673Z,11.40
2017-10-25T22:17:37.204Z,11.40
2017-10-25T22:20:05.500Z,11.40
2017-10-25T22:22:33.835Z,11.40
2017-10-25T22:25:01.361Z,11.40
2017-10-25T22:27:28.888Z,11.40
2017-10-25T22:29:57.240Z,11.40
2017-10-25T22:32:24.776Z,11.40
2017-10-25T22:34:52.299Z,11.40
2017-10-25T22:37:19.864Z,11.40
2017-10-25T22:39:47.388Z,11.40
2017-10-25T22:42:16.428Z,11.30
2017-10-25T22:44:43.972Z,11.30
2017-10-25T22:47:11.495Z,11.30
2017-10-25T22:49:39.024Z,11.30
2017-10-25T22:52:06.595Z,11.20
2017-10-25T22:54:34.116Z,11.20
2017-10-25T22:57:01.643Z,11.20
2017-10-25T22:59:29.191Z,11.30
2017-10-25T23:01:56.719Z,11.20
2017-10-25T23:04:24.248Z,11.20
2017-10-25T23:06:51.798Z,11.10
2017-10-25T23:09:20.094Z,11.10
2017-10-25T23:11:47.616Z,11.10
2017-10-25T23:14:16.744Z,11.10
2017-10-25T23:16:44.273Z,11.00
2017-10-25T23:19:11.798Z,11.00
2017-10-25T23:21:39.347Z,11.00
2017-10-25T23:24:06.881Z,10.90
2017-10-25T23:26:34.408Z,10.90
2017-10-25T23:29:01.959Z,10.90
2017-10-25T23:31:29.500Z,10.80
2017-10-25T23:33:57.046Z,10.80
2017-10-25T23:36:24.616Z,10.80
2017-10-25T23:38:52.907Z,10.80
2017-10-25T23:41:20.440Z,10.70
2017-10-25T23:43:47.996Z,10.70
2017-10-25T23:46:16.488Z,10.70
2017-10-25T23:48:44.011Z,10.70
2017-10-25T23:51:11.564Z,10.70
2017-10-25T23:53:39.852Z,10.60
2017-10-25T23:56:07.380Z,10.60
2017-10-25T23:58:34.991Z,10.60
